DFFMK EDLW-EDLP
Flight info
| Callsign | DFFMK |
|---|---|
| Flight time | N/A |
| Altitude | 24000 |
| Route | DCT |
| Aircraft | PC12/L-SDFGRWY/S |
Departure
| Time | 2026-04-29 13:41 |
|---|---|
| Airport | Dortmund Airport (EDLW) |
Arrival
| Time | N/A |
|---|---|
| Airport | Paderborn Lippstadt Airport (EDLP) |
| Time | Latitude | Longitude | Altitude | Speed | Heading |
|---|---|---|---|---|---|
| 2026-04-29 13:38 | 51.51549 | 7.60844 | 430 ft | 14 kts | 252° |
| 2026-04-29 13:38 | 51.51529 | 7.60732 | 421 ft | 8 kts | 257° |
| 2026-04-29 13:38 | 51.51525 | 7.60696 | 424 ft | 0 kts | 273° |
| 2026-04-29 13:40 | 51.51567 | 7.60607 | 416 ft | 22 kts | 335° |
| 2026-04-29 13:40 | 51.51632 | 7.60668 | 421 ft | 23 kts | 59° |
| 2026-04-29 13:40 | 51.51824 | 7.61189 | 427 ft | 79 kts | 59° |
| 2026-04-29 13:40 | 51.52142 | 7.62053 | 748 ft | 106 kts | 60° |
| 2026-04-29 13:41 | 51.52525 | 7.63242 | 1263 ft | 127 kts | 66° |
| 2026-04-29 13:41 | 51.52701 | 7.64631 | 2071 ft | 130 kts | 94° |
| 2026-04-29 13:41 | 51.52332 | 7.66082 | 2429 ft | 167 kts | 121° |
| 2026-04-29 13:41 | 51.51468 | 7.67680 | 2229 ft | 191 kts | 127° |
| 2026-04-29 13:42 | 51.50587 | 7.69074 | 2170 ft | 160 kts | 136° |
| 2026-04-29 13:42 | 51.49739 | 7.70025 | 2180 ft | 156 kts | 147° |
| 2026-04-29 13:42 | 51.48646 | 7.70609 | 2195 ft | 167 kts | 159° |
| 2026-04-29 13:42 | 51.47532 | 7.71099 | 2191 ft | 165 kts | 159° |
| 2026-04-29 13:43 | 51.46413 | 7.71586 | 2200 ft | 169 kts | 159° |
| 2026-04-29 13:43 | 51.45335 | 7.72195 | 2192 ft | 158 kts | 139° |
| 2026-04-29 13:43 | 51.44515 | 7.73337 | 2197 ft | 156 kts | 131° |
| 2026-04-29 13:43 | 51.43730 | 7.74529 | 2196 ft | 157 kts | 131° |
| 2026-04-29 13:44 | 51.42948 | 7.75772 | 2205 ft | 159 kts | 130° |
| 2026-04-29 13:44 | 51.42151 | 7.76988 | 2192 ft | 155 kts | 130° |
| 2026-04-29 13:44 | 51.41479 | 7.78291 | 2186 ft | 150 kts | 104° |
| 2026-04-29 13:44 | 51.41448 | 7.79923 | 2189 ft | 150 kts | 76° |
| 2026-04-29 13:45 | 51.41747 | 7.81547 | 2202 ft | 159 kts | 73° |
| 2026-04-29 13:45 | 51.42080 | 7.83308 | 2200 ft | 169 kts | 73° |
| 2026-04-29 13:45 | 51.42436 | 7.85054 | 2191 ft | 164 kts | 67° |
| 2026-04-29 13:45 | 51.43019 | 7.86634 | 2185 ft | 165 kts | 58° |
| 2026-04-29 13:46 | 51.43691 | 7.88151 | 2193 ft | 170 kts | 57° |
| 2026-04-29 13:46 | 51.44384 | 7.89719 | 2196 ft | 174 kts | 57° |
| 2026-04-29 13:46 | 51.45054 | 7.91268 | 2198 ft | 168 kts | 57° |
| 2026-04-29 13:46 | 51.45733 | 7.92795 | 2194 ft | 170 kts | 58° |
| 2026-04-29 13:47 | 51.46412 | 7.94347 | 2195 ft | 169 kts | 56° |
| 2026-04-29 13:47 | 51.47079 | 7.95876 | 2194 ft | 166 kts | 57° |
| 2026-04-29 13:47 | 51.47735 | 7.97390 | 2200 ft | 169 kts | 58° |
| 2026-04-29 13:47 | 51.48401 | 7.98923 | 2201 ft | 163 kts | 58° |
| 2026-04-29 13:48 | 51.49067 | 8.00441 | 2191 ft | 168 kts | 57° |
| 2026-04-29 13:48 | 51.49737 | 8.01971 | 2198 ft | 167 kts | 57° |
| 2026-04-29 13:48 | 51.50392 | 8.03519 | 2190 ft | 168 kts | 57° |
| 2026-04-29 13:48 | 51.51053 | 8.05047 | 2186 ft | 164 kts | 57° |
| 2026-04-29 13:49 | 51.51700 | 8.06546 | 2178 ft | 166 kts | 57° |
| 2026-04-29 13:49 | 51.52361 | 8.08095 | 2177 ft | 171 kts | 57° |
| 2026-04-29 13:49 | 51.52803 | 8.09157 | 2175 ft | 174 kts | 58° |
| 2026-04-29 13:49 | 51.53469 | 8.10708 | 2186 ft | 165 kts | 57° |
| 2026-04-29 13:50 | 51.54109 | 8.12199 | 2175 ft | 160 kts | 57° |
| 2026-04-29 13:50 | 51.54746 | 8.13709 | 2196 ft | 166 kts | 58° |
| 2026-04-29 13:50 | 51.55412 | 8.15257 | 2192 ft | 170 kts | 57° |
| 2026-04-29 13:50 | 51.56071 | 8.16765 | 2177 ft | 160 kts | 57° |
| 2026-04-29 13:51 | 51.56717 | 8.18224 | 2180 ft | 161 kts | 57° |